sensor_id;sensor_type;location;lat;lon;timestamp;P1;durP1;ratioP1;P2;durP2;ratioP2
71288;SDS011;59068;52.502;9.860;2023-02-07T00:00:39;11.07;;;8.13;;
71288;SDS011;59068;52.502;9.860;2023-02-07T00:03:05;9.68;;;7.35;;
71288;SDS011;59068;52.502;9.860;2023-02-07T00:05:32;8.20;;;7.33;;
71288;SDS011;59068;52.502;9.860;2023-02-07T00:07:58;9.00;;;7.88;;
71288;SDS011;59068;52.502;9.860;2023-02-07T00:10:25;8.95;;;8.05;;
71288;SDS011;59068;52.502;9.860;2023-02-07T00:12:51;9.15;;;7.70;;
71288;SDS011;59068;52.502;9.860;2023-02-07T00:15:16;7.27;;;6.63;;
71288;SDS011;59068;52.502;9.860;2023-02-07T00:17:42;8.97;;;8.00;;
71288;SDS011;59068;52.502;9.860;2023-02-07T00:20:07;9.83;;;8.50;;
71288;SDS011;59068;52.502;9.860;2023-02-07T00:22:33;10.05;;;7.63;;
71288;SDS011;59068;52.502;9.860;2023-02-07T00:24:59;11.63;;;7.80;;
71288;SDS011;59068;52.502;9.860;2023-02-07T00:27:24;9.10;;;8.20;;
71288;SDS011;59068;52.502;9.860;2023-02-07T00:29:49;9.97;;;7.90;;
71288;SDS011;59068;52.502;9.860;2023-02-07T00:32:15;10.80;;;8.07;;
71288;SDS011;59068;52.502;9.860;2023-02-07T00:34:41;11.10;;;7.83;;
71288;SDS011;59068;52.502;9.860;2023-02-07T00:37:06;12.70;;;8.70;;
71288;SDS011;59068;52.502;9.860;2023-02-07T00:39:33;9.80;;;8.07;;
71288;SDS011;59068;52.502;9.860;2023-02-07T00:42:00;10.65;;;8.52;;
71288;SDS011;59068;52.502;9.860;2023-02-07T00:44:26;9.05;;;7.97;;
71288;SDS011;59068;52.502;9.860;2023-02-07T00:46:53;8.70;;;7.85;;
71288;SDS011;59068;52.502;9.860;2023-02-07T00:49:19;9.43;;;8.38;;
71288;SDS011;59068;52.502;9.860;2023-02-07T00:51:45;11.27;;;8.80;;
71288;SDS011;59068;52.502;9.860;2023-02-07T00:54:11;11.63;;;8.83;;
71288;SDS011;59068;52.502;9.860;2023-02-07T00:56:38;12.43;;;9.00;;
71288;SDS011;59068;52.502;9.860;2023-02-07T00:59:03;8.95;;;8.05;;
71288;SDS011;59068;52.502;9.860;2023-02-07T01:01:30;10.97;;;8.67;;
71288;SDS011;59068;52.502;9.860;2023-02-07T01:10:41;11.77;;;8.23;;
71288;SDS011;59068;52.502;9.860;2023-02-07T01:13:07;10.18;;;8.52;;
71288;SDS011;59068;52.502;9.860;2023-02-07T01:15:36;10.60;;;9.33;;
71288;SDS011;59068;52.502;9.860;2023-02-07T01:18:04;10.55;;;9.25;;
71288;SDS011;59068;52.502;9.860;2023-02-07T01:20:32;9.93;;;8.77;;
71288;SDS011;59068;52.502;9.860;2023-02-07T01:22:57;14.10;;;9.90;;
71288;SDS011;59068;52.502;9.860;2023-02-07T01:25:23;11.17;;;9.20;;
71288;SDS011;59068;52.502;9.860;2023-02-07T01:27:48;12.47;;;9.80;;
71288;SDS011;59068;52.502;9.860;2023-02-07T01:30:15;10.40;;;9.13;;
71288;SDS011;59068;52.502;9.860;2023-02-07T01:32:40;14.10;;;10.02;;
71288;SDS011;59068;52.502;9.860;2023-02-07T01:35:06;12.63;;;9.97;;
71288;SDS011;59068;52.502;9.860;2023-02-07T01:37:31;12.43;;;9.33;;
71288;SDS011;59068;52.502;9.860;2023-02-07T01:39:57;13.43;;;10.17;;
71288;SDS011;59068;52.502;9.860;2023-02-07T01:42:23;14.77;;;10.47;;
71288;SDS011;59068;52.502;9.860;2023-02-07T01:47:16;13.60;;;10.27;;
71288;SDS011;59068;52.502;9.860;2023-02-07T01:49:44;14.57;;;10.88;;
71288;SDS011;59068;52.502;9.860;2023-02-07T01:52:17;15.60;;;11.07;;
71288;SDS011;59068;52.502;9.860;2023-02-07T01:54:46;14.13;;;10.75;;
71288;SDS011;59068;52.502;9.860;2023-02-07T01:57:15;15.68;;;10.95;;
71288;SDS011;59068;52.502;9.860;2023-02-07T01:59:41;13.95;;;11.02;;
71288;SDS011;59068;52.502;9.860;2023-02-07T02:02:09;13.30;;;10.38;;
71288;SDS011;59068;52.502;9.860;2023-02-07T02:04:37;12.05;;;9.93;;
71288;SDS011;59068;52.502;9.860;2023-02-07T02:07:05;14.25;;;10.07;;
71288;SDS011;59068;52.502;9.860;2023-02-07T02:09:34;13.02;;;10.52;;
71288;SDS011;59068;52.502;9.860;2023-02-07T02:28:39;10.75;;;8.63;;
71288;SDS011;59068;52.502;9.860;2023-02-07T02:33:53;10.43;;;8.88;;
71288;SDS011;59068;52.502;9.860;2023-02-07T02:41:58;10.50;;;8.52;;
71288;SDS011;59068;52.502;9.860;2023-02-07T02:44:37;10.85;;;8.73;;
71288;SDS011;59068;52.502;9.860;2023-02-07T02:47:06;10.65;;;8.50;;
71288;SDS011;59068;52.502;9.860;2023-02-07T02:49:34;10.18;;;8.02;;
71288;SDS011;59068;52.502;9.860;2023-02-07T02:52:00;9.60;;;7.95;;
71288;SDS011;59068;52.502;9.860;2023-02-07T03:05:39;11.25;;;8.48;;
71288;SDS011;59068;52.502;9.860;2023-02-07T03:10:53;10.55;;;8.95;;
71288;SDS011;59068;52.502;9.860;2023-02-07T03:14:08;11.02;;;8.80;;
71288;SDS011;59068;52.502;9.860;2023-02-07T03:16:39;11.13;;;8.82;;
71288;SDS011;59068;52.502;9.860;2023-02-07T03:19:24;9.30;;;8.30;;
71288;SDS011;59068;52.502;9.860;2023-02-07T03:21:56;10.55;;;8.38;;
71288;SDS011;59068;52.502;9.860;2023-02-07T03:24:28;12.18;;;8.57;;
71288;SDS011;59068;52.502;9.860;2023-02-07T03:26:56;11.45;;;8.75;;
71288;SDS011;59068;52.502;9.860;2023-02-07T03:29:23;9.43;;;8.13;;
71288;SDS011;59068;52.502;9.860;2023-02-07T03:31:50;11.43;;;9.10;;
71288;SDS011;59068;52.502;9.860;2023-02-07T03:34:19;11.73;;;8.50;;
71288;SDS011;59068;52.502;9.860;2023-02-07T03:36:55;9.93;;;8.43;;
71288;SDS011;59068;52.502;9.860;2023-02-07T03:39:47;10.95;;;8.27;;
71288;SDS011;59068;52.502;9.860;2023-02-07T03:42:36;10.82;;;8.38;;
71288;SDS011;59068;52.502;9.860;2023-02-07T03:45:00;12.07;;;9.35;;
71288;SDS011;59068;52.502;9.860;2023-02-07T03:47:26;12.27;;;8.33;;
71288;SDS011;59068;52.502;9.860;2023-02-07T03:49:51;11.43;;;8.73;;
71288;SDS011;59068;52.502;9.860;2023-02-07T03:52:17;10.47;;;8.13;;
71288;SDS011;59068;52.502;9.860;2023-02-07T03:54:42;10.33;;;8.93;;
71288;SDS011;59068;52.502;9.860;2023-02-07T03:57:08;11.77;;;8.80;;
71288;SDS011;59068;52.502;9.860;2023-02-07T03:59:34;11.77;;;8.03;;
71288;SDS011;59068;52.502;9.860;2023-02-07T04:02:00;11.73;;;9.07;;
71288;SDS011;59068;52.502;9.860;2023-02-07T04:04:26;11.80;;;8.73;;
71288;SDS011;59068;52.502;9.860;2023-02-07T04:06:51;12.47;;;8.90;;
71288;SDS011;59068;52.502;9.860;2023-02-07T04:09:17;9.93;;;8.27;;
71288;SDS011;59068;52.502;9.860;2023-02-07T04:11:47;13.27;;;9.13;;
71288;SDS011;59068;52.502;9.860;2023-02-07T04:14:14;9.15;;;8.15;;
71288;SDS011;59068;52.502;9.860;2023-02-07T04:16:40;9.52;;;7.55;;
71288;SDS011;59068;52.502;9.860;2023-02-07T04:19:06;9.90;;;8.40;;
71288;SDS011;59068;52.502;9.860;2023-02-07T04:21:32;11.55;;;8.50;;
71288;SDS011;59068;52.502;9.860;2023-02-07T04:23:57;9.87;;;7.80;;
71288;SDS011;59068;52.502;9.860;2023-02-07T04:26:22;10.90;;;8.27;;
71288;SDS011;59068;52.502;9.860;2023-02-07T04:28:48;11.23;;;8.47;;
71288;SDS011;59068;52.502;9.860;2023-02-07T04:31:14;11.68;;;7.90;;
71288;SDS011;59068;52.502;9.860;2023-02-07T04:33:41;12.30;;;8.77;;
71288;SDS011;59068;52.502;9.860;2023-02-07T04:36:07;10.38;;;8.50;;
71288;SDS011;59068;52.502;9.860;2023-02-07T04:38:33;9.63;;;8.00;;
71288;SDS011;59068;52.502;9.860;2023-02-07T04:40:59;12.20;;;8.45;;
71288;SDS011;59068;52.502;9.860;2023-02-07T04:43:28;10.45;;;8.88;;
71288;SDS011;59068;52.502;9.860;2023-02-07T04:45:54;8.67;;;7.40;;
71288;SDS011;59068;52.502;9.860;2023-02-07T04:48:20;12.50;;;8.63;;
71288;SDS011;59068;52.502;9.860;2023-02-07T04:50:46;14.82;;;10.43;;
71288;SDS011;59068;52.502;9.860;2023-02-07T04:53:12;10.83;;;9.30;;
71288;SDS011;59068;52.502;9.860;2023-02-07T04:55:37;11.77;;;9.10;;
71288;SDS011;59068;52.502;9.860;2023-02-07T04:58:04;11.70;;;9.00;;
71288;SDS011;59068;52.502;9.860;2023-02-07T05:00:31;14.98;;;10.07;;
71288;SDS011;59068;52.502;9.860;2023-02-07T05:02:57;15.20;;;10.45;;
71288;SDS011;59068;52.502;9.860;2023-02-07T05:05:25;11.23;;;8.87;;
71288;SDS011;59068;52.502;9.860;2023-02-07T05:07:51;14.15;;;10.45;;
71288;SDS011;59068;52.502;9.860;2023-02-07T05:10:16;15.13;;;10.50;;
71288;SDS011;59068;52.502;9.860;2023-02-07T05:12:43;12.03;;;9.57;;
71288;SDS011;59068;52.502;9.860;2023-02-07T05:15:08;13.75;;;9.82;;
71288;SDS011;59068;52.502;9.860;2023-02-07T05:17:34;13.77;;;9.97;;
71288;SDS011;59068;52.502;9.860;2023-02-07T05:20:01;18.37;;;12.67;;
71288;SDS011;59068;52.502;9.860;2023-02-07T05:22:27;16.17;;;11.77;;
71288;SDS011;59068;52.502;9.860;2023-02-07T05:24:54;14.10;;;11.00;;
71288;SDS011;59068;52.502;9.860;2023-02-07T05:27:19;14.40;;;10.65;;
71288;SDS011;59068;52.502;9.860;2023-02-07T05:29:44;13.50;;;10.20;;
71288;SDS011;59068;52.502;9.860;2023-02-07T05:32:11;15.23;;;10.87;;
71288;SDS011;59068;52.502;9.860;2023-02-07T05:34:56;12.30;;;9.45;;
71288;SDS011;59068;52.502;9.860;2023-02-07T05:37:21;14.07;;;10.17;;
71288;SDS011;59068;52.502;9.860;2023-02-07T05:39:46;12.47;;;9.90;;
71288;SDS011;59068;52.502;9.860;2023-02-07T05:42:12;13.97;;;9.80;;
71288;SDS011;59068;52.502;9.860;2023-02-07T05:44:39;14.93;;;10.27;;
71288;SDS011;59068;52.502;9.860;2023-02-07T05:47:04;14.30;;;10.57;;
71288;SDS011;59068;52.502;9.860;2023-02-07T05:49:30;12.73;;;9.67;;
71288;SDS011;59068;52.502;9.860;2023-02-07T05:51:56;14.15;;;10.48;;
71288;SDS011;59068;52.502;9.860;2023-02-07T05:54:22;14.20;;;10.87;;
71288;SDS011;59068;52.502;9.860;2023-02-07T05:56:48;14.93;;;10.82;;
71288;SDS011;59068;52.502;9.860;2023-02-07T05:59:13;15.87;;;12.03;;
71288;SDS011;59068;52.502;9.860;2023-02-07T06:01:38;14.13;;;10.43;;
71288;SDS011;59068;52.502;9.860;2023-02-07T06:04:05;18.03;;;12.83;;
71288;SDS011;59068;52.502;9.860;2023-02-07T06:06:31;15.82;;;11.38;;
71288;SDS011;59068;52.502;9.860;2023-02-07T06:08:56;15.13;;;11.33;;
71288;SDS011;59068;52.502;9.860;2023-02-07T06:11:22;15.47;;;11.17;;
71288;SDS011;59068;52.502;9.860;2023-02-07T06:13:49;13.97;;;10.57;;
71288;SDS011;59068;52.502;9.860;2023-02-07T06:16:15;15.30;;;10.73;;
71288;SDS011;59068;52.502;9.860;2023-02-07T06:18:41;16.95;;;11.80;;
71288;SDS011;59068;52.502;9.860;2023-02-07T06:21:07;19.15;;;12.60;;
71288;SDS011;59068;52.502;9.860;2023-02-07T06:23:34;19.03;;;12.80;;
71288;SDS011;59068;52.502;9.860;2023-02-07T06:26:01;18.80;;;13.60;;
71288;SDS011;59068;52.502;9.860;2023-02-07T06:28:28;18.20;;;13.35;;
71288;SDS011;59068;52.502;9.860;2023-02-07T06:30:53;24.55;;;19.65;;
71288;SDS011;59068;52.502;9.860;2023-02-07T06:33:20;18.20;;;13.43;;
71288;SDS011;59068;52.502;9.860;2023-02-07T06:35:46;18.70;;;13.07;;
71288;SDS011;59068;52.502;9.860;2023-02-07T06:38:13;17.80;;;12.82;;
71288;SDS011;59068;52.502;9.860;2023-02-07T06:40:40;18.08;;;12.88;;
71288;SDS011;59068;52.502;9.860;2023-02-07T06:43:07;22.73;;;13.32;;
71288;SDS011;59068;52.502;9.860;2023-02-07T06:45:33;24.60;;;13.07;;
71288;SDS011;59068;52.502;9.860;2023-02-07T06:47:58;20.50;;;12.40;;
71288;SDS011;59068;52.502;9.860;2023-02-07T06:50:24;16.60;;;11.30;;
71288;SDS011;59068;52.502;9.860;2023-02-07T06:52:49;16.50;;;12.57;;
71288;SDS011;59068;52.502;9.860;2023-02-07T06:55:15;19.17;;;13.20;;
71288;SDS011;59068;52.502;9.860;2023-02-07T06:57:41;17.27;;;12.97;;
71288;SDS011;59068;52.502;9.860;2023-02-07T07:00:07;18.25;;;12.65;;
71288;SDS011;59068;52.502;9.860;2023-02-07T07:02:34;17.45;;;12.75;;
71288;SDS011;59068;52.502;9.860;2023-02-07T07:05:00;17.15;;;11.80;;
71288;SDS011;59068;52.502;9.860;2023-02-07T07:07:25;16.27;;;12.03;;
71288;SDS011;59068;52.502;9.860;2023-02-07T07:09:51;18.07;;;12.60;;
71288;SDS011;59068;52.502;9.860;2023-02-07T07:12:18;16.83;;;11.27;;
71288;SDS011;59068;52.502;9.860;2023-02-07T07:14:43;19.45;;;12.43;;
71288;SDS011;59068;52.502;9.860;2023-02-07T07:17:10;19.00;;;12.60;;
71288;SDS011;59068;52.502;9.860;2023-02-07T07:19:37;16.83;;;11.82;;
71288;SDS011;59068;52.502;9.860;2023-02-07T07:22:03;17.77;;;12.07;;
71288;SDS011;59068;52.502;9.860;2023-02-07T07:24:29;16.63;;;11.37;;
71288;SDS011;59068;52.502;9.860;2023-02-07T07:26:55;17.85;;;12.50;;
71288;SDS011;59068;52.502;9.860;2023-02-07T07:29:20;17.27;;;12.20;;
71288;SDS011;59068;52.502;9.860;2023-02-07T07:31:47;15.30;;;11.10;;
71288;SDS011;59068;52.502;9.860;2023-02-07T07:34:14;20.60;;;13.98;;
71288;SDS011;59068;52.502;9.860;2023-02-07T07:36:39;19.00;;;12.25;;
71288;SDS011;59068;52.502;9.860;2023-02-07T07:39:04;18.03;;;12.20;;
71288;SDS011;59068;52.502;9.860;2023-02-07T07:41:32;22.98;;;14.40;;
71288;SDS011;59068;52.502;9.860;2023-02-07T07:43:57;21.73;;;13.97;;
71288;SDS011;59068;52.502;9.860;2023-02-07T07:46:23;22.17;;;13.87;;
71288;SDS011;59068;52.502;9.860;2023-02-07T07:48:48;20.00;;;12.90;;
71288;SDS011;59068;52.502;9.860;2023-02-07T07:51:14;22.60;;;14.47;;
71288;SDS011;59068;52.502;9.860;2023-02-07T07:53:40;25.53;;;15.57;;
71288;SDS011;59068;52.502;9.860;2023-02-07T07:56:06;22.90;;;14.93;;
71288;SDS011;59068;52.502;9.860;2023-02-07T07:58:32;22.33;;;14.40;;
71288;SDS011;59068;52.502;9.860;2023-02-07T08:00:58;24.80;;;15.75;;
71288;SDS011;59068;52.502;9.860;2023-02-07T08:03:24;24.27;;;13.90;;
71288;SDS011;59068;52.502;9.860;2023-02-07T08:05:51;21.60;;;14.18;;
71288;SDS011;59068;52.502;9.860;2023-02-07T08:08:18;22.00;;;14.52;;
71288;SDS011;59068;52.502;9.860;2023-02-07T08:10:46;20.45;;;14.32;;
71288;SDS011;59068;52.502;9.860;2023-02-07T08:13:12;18.02;;;13.02;;
71288;SDS011;59068;52.502;9.860;2023-02-07T08:15:38;20.03;;;14.20;;
71288;SDS011;59068;52.502;9.860;2023-02-07T08:18:04;23.10;;;15.57;;
71288;SDS011;59068;52.502;9.860;2023-02-07T08:20:30;22.08;;;14.57;;
71288;SDS011;59068;52.502;9.860;2023-02-07T08:22:56;22.30;;;14.93;;
71288;SDS011;59068;52.502;9.860;2023-02-07T08:25:22;21.83;;;14.55;;
71288;SDS011;59068;52.502;9.860;2023-02-07T08:27:49;23.70;;;15.48;;
71288;SDS011;59068;52.502;9.860;2023-02-07T08:30:15;23.58;;;15.13;;
71288;SDS011;59068;52.502;9.860;2023-02-07T08:32:41;23.80;;;15.73;;
71288;SDS011;59068;52.502;9.860;2023-02-07T08:35:06;23.30;;;15.83;;
71288;SDS011;59068;52.502;9.860;2023-02-07T08:37:33;25.98;;;16.83;;
71288;SDS011;59068;52.502;9.860;2023-02-07T08:39:58;29.93;;;16.90;;
71288;SDS011;59068;52.502;9.860;2023-02-07T08:42:24;23.40;;;15.67;;
71288;SDS011;59068;52.502;9.860;2023-02-07T08:44:49;21.10;;;14.83;;
71288;SDS011;59068;52.502;9.860;2023-02-07T08:47:15;23.10;;;15.93;;
71288;SDS011;59068;52.502;9.860;2023-02-07T08:49:42;24.83;;;16.50;;
71288;SDS011;59068;52.502;9.860;2023-02-07T08:52:10;23.88;;;16.42;;
71288;SDS011;59068;52.502;9.860;2023-02-07T08:54:37;23.92;;;15.90;;
71288;SDS011;59068;52.502;9.860;2023-02-07T08:57:02;24.90;;;16.55;;
71288;SDS011;59068;52.502;9.860;2023-02-07T08:59:29;23.03;;;15.77;;
71288;SDS011;59068;52.502;9.860;2023-02-07T09:01:55;25.45;;;17.25;;
71288;SDS011;59068;52.502;9.860;2023-02-07T09:04:22;28.20;;;18.00;;
71288;SDS011;59068;52.502;9.860;2023-02-07T09:06:47;24.77;;;17.33;;
71288;SDS011;59068;52.502;9.860;2023-02-07T09:09:13;24.97;;;15.53;;
71288;SDS011;59068;52.502;9.860;2023-02-07T09:11:38;24.57;;;16.43;;
71288;SDS011;59068;52.502;9.860;2023-02-07T09:14:04;26.20;;;17.00;;
71288;SDS011;59068;52.502;9.860;2023-02-07T09:16:30;25.37;;;16.93;;
71288;SDS011;59068;52.502;9.860;2023-02-07T09:18:55;26.80;;;18.37;;
71288;SDS011;59068;52.502;9.860;2023-02-07T09:21:22;24.20;;;17.27;;
71288;SDS011;59068;52.502;9.860;2023-02-07T09:23:48;28.45;;;18.15;;
71288;SDS011;59068;52.502;9.860;2023-02-07T09:26:18;26.37;;;17.43;;
71288;SDS011;59068;52.502;9.860;2023-02-07T09:28:46;26.88;;;18.33;;
71288;SDS011;59068;52.502;9.860;2023-02-07T09:31:11;24.27;;;16.87;;
71288;SDS011;59068;52.502;9.860;2023-02-07T09:33:39;22.80;;;17.17;;
71288;SDS011;59068;52.502;9.860;2023-02-07T09:36:16;23.23;;;15.75;;
71288;SDS011;59068;52.502;9.860;2023-02-07T09:38:51;23.02;;;16.92;;
71288;SDS011;59068;52.502;9.860;2023-02-07T09:41:41;25.27;;;16.00;;
71288;SDS011;59068;52.502;9.860;2023-02-07T09:49:28;23.98;;;16.48;;
71288;SDS011;59068;52.502;9.860;2023-02-07T09:51:59;21.25;;;16.05;;
71288;SDS011;59068;52.502;9.860;2023-02-07T09:54:48;20.33;;;14.85;;
71288;SDS011;59068;52.502;9.860;2023-02-07T09:57:20;20.17;;;14.00;;
71288;SDS011;59068;52.502;9.860;2023-02-07T09:59:58;20.50;;;15.07;;
71288;SDS011;59068;52.502;9.860;2023-02-07T10:05:20;18.48;;;14.13;;
71288;SDS011;59068;52.502;9.860;2023-02-07T10:07:48;20.50;;;14.23;;
71288;SDS011;59068;52.502;9.860;2023-02-07T10:10:18;19.13;;;14.70;;
71288;SDS011;59068;52.502;9.860;2023-02-07T10:32:36;18.00;;;12.50;;
71288;SDS011;59068;52.502;9.860;2023-02-07T10:35:00;16.33;;;12.43;;
71288;SDS011;59068;52.502;9.860;2023-02-07T10:37:34;16.58;;;12.35;;
71288;SDS011;59068;52.502;9.860;2023-02-07T10:40:06;16.95;;;12.85;;
71288;SDS011;59068;52.502;9.860;2023-02-07T10:42:38;15.23;;;11.48;;
71288;SDS011;59068;52.502;9.860;2023-02-07T10:45:04;15.88;;;12.27;;
71288;SDS011;59068;52.502;9.860;2023-02-07T10:47:31;15.50;;;11.27;;
71288;SDS011;59068;52.502;9.860;2023-02-07T10:50:02;16.20;;;12.15;;
71288;SDS011;59068;52.502;9.860;2023-02-07T10:52:36;16.98;;;11.73;;
71288;SDS011;59068;52.502;9.860;2023-02-07T10:55:04;15.30;;;11.30;;
71288;SDS011;59068;52.502;9.860;2023-02-07T10:57:31;15.63;;;11.35;;
71288;SDS011;59068;52.502;9.860;2023-02-07T11:02:50;14.83;;;10.63;;
71288;SDS011;59068;52.502;9.860;2023-02-07T11:08:05;12.87;;;10.43;;
71288;SDS011;59068;52.502;9.860;2023-02-07T11:10:39;14.73;;;10.63;;
71288;SDS011;59068;52.502;9.860;2023-02-07T11:13:11;14.23;;;10.18;;
71288;SDS011;59068;52.502;9.860;2023-02-07T11:15:44;12.95;;;10.30;;
71288;SDS011;59068;52.502;9.860;2023-02-07T11:18:57;10.98;;;8.77;;
71288;SDS011;59068;52.502;9.860;2023-02-07T11:23:52;13.57;;;9.80;;
71288;SDS011;59068;52.502;9.860;2023-02-07T11:26:19;12.27;;;10.67;;
71288;SDS011;59068;52.502;9.860;2023-02-07T11:28:46;11.97;;;10.10;;
71288;SDS011;59068;52.502;9.860;2023-02-07T11:31:16;12.07;;;10.00;;
71288;SDS011;59068;52.502;9.860;2023-02-07T11:33:44;13.68;;;10.60;;
71288;SDS011;59068;52.502;9.860;2023-02-07T11:36:20;11.95;;;9.82;;
71288;SDS011;59068;52.502;9.860;2023-02-07T11:38:56;13.17;;;9.93;;
71288;SDS011;59068;52.502;9.860;2023-02-07T11:41:24;13.35;;;10.10;;
71288;SDS011;59068;52.502;9.860;2023-02-07T11:44:02;14.57;;;10.43;;
71288;SDS011;59068;52.502;9.860;2023-02-07T11:46:38;13.10;;;10.33;;
71288;SDS011;59068;52.502;9.860;2023-02-07T11:49:32;12.40;;;10.83;;
71288;SDS011;59068;52.502;9.860;2023-02-07T11:51:57;13.67;;;10.37;;
71288;SDS011;59068;52.502;9.860;2023-02-07T11:54:23;12.05;;;9.98;;
71288;SDS011;59068;52.502;9.860;2023-02-07T11:56:50;13.70;;;10.43;;
71288;SDS011;59068;52.502;9.860;2023-02-07T11:59:20;12.40;;;10.13;;
71288;SDS011;59068;52.502;9.860;2023-02-07T12:01:51;10.37;;;9.27;;
71288;SDS011;59068;52.502;9.860;2023-02-07T12:04:19;12.80;;;10.40;;
71288;SDS011;59068;52.502;9.860;2023-02-07T12:06:54;12.30;;;9.57;;
71288;SDS011;59068;52.502;9.860;2023-02-07T12:12:04;11.50;;;9.80;;
71288;SDS011;59068;52.502;9.860;2023-02-07T12:14:38;13.30;;;9.90;;
71288;SDS011;59068;52.502;9.860;2023-02-07T12:17:10;12.70;;;10.10;;
71288;SDS011;59068;52.502;9.860;2023-02-07T12:19:54;10.50;;;9.23;;
71288;SDS011;59068;52.502;9.860;2023-02-07T12:22:27;9.23;;;8.27;;
71288;SDS011;59068;52.502;9.860;2023-02-07T12:25:13;9.20;;;7.73;;
71288;SDS011;59068;52.502;9.860;2023-02-07T12:27:44;8.67;;;7.30;;
71288;SDS011;59068;52.502;9.860;2023-02-07T12:32:59;10.67;;;8.47;;
71288;SDS011;59068;52.502;9.860;2023-02-07T12:38:37;9.47;;;8.27;;
71288;SDS011;59068;52.502;9.860;2023-02-07T12:41:16;8.37;;;7.50;;
71288;SDS011;59068;52.502;9.860;2023-02-07T12:47:33;12.33;;;8.90;;
71288;SDS011;59068;52.502;9.860;2023-02-07T12:52:53;9.93;;;8.67;;
71288;SDS011;59068;52.502;9.860;2023-02-07T13:01:23;9.93;;;8.10;;
71288;SDS011;59068;52.502;9.860;2023-02-07T13:04:11;11.10;;;8.60;;
71288;SDS011;59068;52.502;9.860;2023-02-07T13:12:26;9.90;;;8.90;;
71288;SDS011;59068;52.502;9.860;2023-02-07T13:15:28;8.70;;;7.43;;
71288;SDS011;59068;52.502;9.860;2023-02-07T13:23:18;10.73;;;7.73;;
71288;SDS011;59068;52.502;9.860;2023-02-07T13:25:47;8.67;;;7.70;;
71288;SDS011;59068;52.502;9.860;2023-02-07T13:31:05;10.37;;;7.60;;
71288;SDS011;59068;52.502;9.860;2023-02-07T13:33:39;10.03;;;8.10;;
71288;SDS011;59068;52.502;9.860;2023-02-07T13:39:01;9.73;;;7.80;;
71288;SDS011;59068;52.502;9.860;2023-02-07T13:41:38;8.17;;;7.37;;
71288;SDS011;59068;52.502;9.860;2023-02-07T13:57:58;8.87;;;7.57;;
71288;SDS011;59068;52.502;9.860;2023-02-07T14:03:26;9.53;;;7.80;;
71288;SDS011;59068;52.502;9.860;2023-02-07T14:06:41;9.37;;;7.70;;
71288;SDS011;59068;52.502;9.860;2023-02-07T14:08:45;9.13;;;7.57;;
71288;SDS011;59068;52.502;9.860;2023-02-07T14:11:28;8.60;;;7.47;;
71288;SDS011;59068;52.502;9.860;2023-02-07T14:16:58;7.57;;;6.67;;
71288;SDS011;59068;52.502;9.860;2023-02-07T14:19:48;7.87;;;6.77;;
71288;SDS011;59068;52.502;9.860;2023-02-07T14:38:41;9.33;;;7.77;;
71288;SDS011;59068;52.502;9.860;2023-02-07T14:41:14;9.90;;;7.73;;
71288;SDS011;59068;52.502;9.860;2023-02-07T14:46:13;7.67;;;5.77;;
71288;SDS011;59068;52.502;9.860;2023-02-07T14:51:13;8.10;;;6.73;;
71288;SDS011;59068;52.502;9.860;2023-02-07T14:53:41;7.23;;;5.87;;
71288;SDS011;59068;52.502;9.860;2023-02-07T14:59:26;9.27;;;6.60;;
71288;SDS011;59068;52.502;9.860;2023-02-07T15:05:10;8.07;;;6.90;;
71288;SDS011;59068;52.502;9.860;2023-02-07T15:07:43;9.47;;;7.30;;
71288;SDS011;59068;52.502;9.860;2023-02-07T15:10:25;9.10;;;6.67;;
71288;SDS011;59068;52.502;9.860;2023-02-07T15:12:51;10.07;;;8.03;;
71288;SDS011;59068;52.502;9.860;2023-02-07T15:15:18;8.70;;;7.63;;
71288;SDS011;59068;52.502;9.860;2023-02-07T15:17:47;9.23;;;7.93;;
71288;SDS011;59068;52.502;9.860;2023-02-07T15:20:15;11.07;;;8.60;;
71288;SDS011;59068;52.502;9.860;2023-02-07T15:22:45;11.10;;;8.53;;
71288;SDS011;59068;52.502;9.860;2023-02-07T15:25:12;11.63;;;9.33;;
71288;SDS011;59068;52.502;9.860;2023-02-07T15:27:39;12.43;;;8.50;;
71288;SDS011;59068;52.502;9.860;2023-02-07T15:30:06;10.20;;;8.50;;
71288;SDS011;59068;52.502;9.860;2023-02-07T15:32:42;9.87;;;8.30;;
71288;SDS011;59068;52.502;9.860;2023-02-07T15:35:11;9.77;;;8.27;;
71288;SDS011;59068;52.502;9.860;2023-02-07T15:38:12;11.00;;;8.33;;
71288;SDS011;59068;52.502;9.860;2023-02-07T15:40:44;10.23;;;8.20;;
71288;SDS011;59068;52.502;9.860;2023-02-07T15:43:21;10.30;;;7.30;;
71288;SDS011;59068;52.502;9.860;2023-02-07T15:48:48;7.77;;;6.80;;
71288;SDS011;59068;52.502;9.860;2023-02-07T15:51:15;8.37;;;6.27;;
71288;SDS011;59068;52.502;9.860;2023-02-07T15:53:42;8.67;;;6.53;;
71288;SDS011;59068;52.502;9.860;2023-02-07T15:56:11;6.93;;;6.17;;
71288;SDS011;59068;52.502;9.860;2023-02-07T15:58:38;8.57;;;6.33;;
71288;SDS011;59068;52.502;9.860;2023-02-07T16:01:06;7.20;;;6.50;;
71288;SDS011;59068;52.502;9.860;2023-02-07T16:03:44;9.07;;;6.97;;
71288;SDS011;59068;52.502;9.860;2023-02-07T16:06:21;6.80;;;6.10;;
71288;SDS011;59068;52.502;9.860;2023-02-07T16:08:48;7.03;;;6.33;;
71288;SDS011;59068;52.502;9.860;2023-02-07T16:24:44;11.00;;;9.53;;
71288;SDS011;59068;52.502;9.860;2023-02-07T16:27:14;12.10;;;9.47;;
71288;SDS011;59068;52.502;9.860;2023-02-07T16:29:43;11.43;;;8.83;;
71288;SDS011;59068;52.502;9.860;2023-02-07T16:32:10;10.33;;;8.90;;
71288;SDS011;59068;52.502;9.860;2023-02-07T16:34:37;9.77;;;8.07;;
71288;SDS011;59068;52.502;9.860;2023-02-07T16:37:02;10.70;;;8.53;;
71288;SDS011;59068;52.502;9.860;2023-02-07T16:39:28;9.57;;;7.63;;
71288;SDS011;59068;52.502;9.860;2023-02-07T16:41:55;10.50;;;8.20;;
71288;SDS011;59068;52.502;9.860;2023-02-07T16:44:25;9.60;;;7.20;;
71288;SDS011;59068;52.502;9.860;2023-02-07T16:46:53;9.67;;;8.27;;
71288;SDS011;59068;52.502;9.860;2023-02-07T16:49:24;9.93;;;7.67;;
71288;SDS011;59068;52.502;9.860;2023-02-07T16:51:52;8.93;;;7.20;;
71288;SDS011;59068;52.502;9.860;2023-02-07T16:54:18;10.10;;;8.17;;
71288;SDS011;59068;52.502;9.860;2023-02-07T16:56:44;10.43;;;7.77;;
71288;SDS011;59068;52.502;9.860;2023-02-07T16:59:16;10.27;;;8.13;;
71288;SDS011;59068;52.502;9.860;2023-02-07T17:01:44;12.87;;;10.07;;
71288;SDS011;59068;52.502;9.860;2023-02-07T17:04:10;15.17;;;11.03;;
71288;SDS011;59068;52.502;9.860;2023-02-07T17:06:36;19.73;;;12.03;;
71288;SDS011;59068;52.502;9.860;2023-02-07T17:09:02;16.13;;;10.63;;
71288;SDS011;59068;52.502;9.860;2023-02-07T17:11:27;13.53;;;11.77;;
71288;SDS011;59068;52.502;9.860;2023-02-07T17:13:54;14.60;;;10.10;;
71288;SDS011;59068;52.502;9.860;2023-02-07T17:16:21;15.60;;;11.80;;
71288;SDS011;59068;52.502;9.860;2023-02-07T17:18:47;14.10;;;11.67;;
71288;SDS011;59068;52.502;9.860;2023-02-07T17:21:12;13.40;;;11.00;;
71288;SDS011;59068;52.502;9.860;2023-02-07T17:23:40;13.33;;;11.53;;
71288;SDS011;59068;52.502;9.860;2023-02-07T17:26:14;17.63;;;12.43;;
71288;SDS011;59068;52.502;9.860;2023-02-07T17:28:44;15.47;;;12.23;;
71288;SDS011;59068;52.502;9.860;2023-02-07T17:31:10;17.03;;;12.27;;
71288;SDS011;59068;52.502;9.860;2023-02-07T17:33:37;16.23;;;11.30;;
71288;SDS011;59068;52.502;9.860;2023-02-07T17:36:04;15.23;;;10.97;;
71288;SDS011;59068;52.502;9.860;2023-02-07T17:38:31;14.73;;;10.53;;
71288;SDS011;59068;52.502;9.860;2023-02-07T17:40:57;11.37;;;9.17;;
71288;SDS011;59068;52.502;9.860;2023-02-07T17:43:22;14.73;;;10.10;;
71288;SDS011;59068;52.502;9.860;2023-02-07T17:45:48;16.87;;;11.57;;